sensor_id;sensor_type;location;lat;lon;timestamp;temperature;humidity
56256;DHT22;57229;51.432;-2.598;2022-07-05T00:00:12;12.30;99.90
56256;DHT22;57229;51.432;-2.598;2022-07-05T00:02:39;12.40;99.90
56256;DHT22;57229;51.432;-2.598;2022-07-05T00:05:05;12.40;99.90
56256;DHT22;57229;51.432;-2.598;2022-07-05T00:07:30;12.30;99.90
56256;DHT22;57229;51.432;-2.598;2022-07-05T00:09:57;12.20;99.90
56256;DHT22;57229;51.432;-2.598;2022-07-05T00:12:26;12.10;99.90
56256;DHT22;57229;51.432;-2.598;2022-07-05T00:14:53;12.10;99.90
56256;DHT22;57229;51.432;-2.598;2022-07-05T00:17:19;12.10;99.90
56256;DHT22;57229;51.432;-2.598;2022-07-05T00:19:45;12.00;99.90
56256;DHT22;57229;51.432;-2.598;2022-07-05T00:22:11;11.90;99.90
56256;DHT22;57229;51.432;-2.598;2022-07-05T00:24:37;11.90;99.90
56256;DHT22;57229;51.432;-2.598;2022-07-05T00:27:03;11.80;99.90
56256;DHT22;57229;51.432;-2.598;2022-07-05T00:29:29;11.70;99.90
56256;DHT22;57229;51.432;-2.598;2022-07-05T00:31:55;11.60;99.90
56256;DHT22;57229;51.432;-2.598;2022-07-05T00:34:20;11.60;99.90
56256;DHT22;57229;51.432;-2.598;2022-07-05T00:36:46;11.60;99.90
56256;DHT22;57229;51.432;-2.598;2022-07-05T00:39:12;11.60;99.90
56256;DHT22;57229;51.432;-2.598;2022-07-05T00:41:38;11.60;99.90
56256;DHT22;57229;51.432;-2.598;2022-07-05T00:44:06;11.60;99.90
56256;DHT22;57229;51.432;-2.598;2022-07-05T00:46:35;11.50;99.90
56256;DHT22;57229;51.432;-2.598;2022-07-05T00:49:01;11.40;99.90
56256;DHT22;57229;51.432;-2.598;2022-07-05T00:51:30;11.40;99.90
56256;DHT22;57229;51.432;-2.598;2022-07-05T00:53:56;11.40;99.90
56256;DHT22;57229;51.432;-2.598;2022-07-05T00:56:23;11.40;99.90
56256;DHT22;57229;51.432;-2.598;2022-07-05T00:58:50;11.30;99.90
56256;DHT22;57229;51.432;-2.598;2022-07-05T01:01:15;11.30;99.90
56256;DHT22;57229;51.432;-2.598;2022-07-05T01:03:42;11.20;99.90
56256;DHT22;57229;51.432;-2.598;2022-07-05T01:06:10;11.20;99.90
56256;DHT22;57229;51.432;-2.598;2022-07-05T01:08:39;11.20;99.90
56256;DHT22;57229;51.432;-2.598;2022-07-05T01:11:05;11.10;99.90
56256;DHT22;57229;51.432;-2.598;2022-07-05T01:13:31;11.10;99.90
56256;DHT22;57229;51.432;-2.598;2022-07-05T01:15:57;11.10;99.90
56256;DHT22;57229;51.432;-2.598;2022-07-05T01:18:23;11.10;99.90
56256;DHT22;57229;51.432;-2.598;2022-07-05T01:20:49;11.10;99.90
56256;DHT22;57229;51.432;-2.598;2022-07-05T01:23:17;11.10;99.90
56256;DHT22;57229;51.432;-2.598;2022-07-05T01:25:44;11.00;99.90
56256;DHT22;57229;51.432;-2.598;2022-07-05T01:28:10;11.00;99.90
56256;DHT22;57229;51.432;-2.598;2022-07-05T01:30:36;11.00;99.90
56256;DHT22;57229;51.432;-2.598;2022-07-05T01:33:05;11.00;99.90
56256;DHT22;57229;51.432;-2.598;2022-07-05T01:35:31;11.00;99.90
56256;DHT22;57229;51.432;-2.598;2022-07-05T01:37:56;11.10;99.90
56256;DHT22;57229;51.432;-2.598;2022-07-05T01:40:22;11.10;99.90
56256;DHT22;57229;51.432;-2.598;2022-07-05T01:42:48;11.10;99.90
56256;DHT22;57229;51.432;-2.598;2022-07-05T01:45:16;11.10;99.90
56256;DHT22;57229;51.432;-2.598;2022-07-05T01:48:07;11.10;99.90
56256;DHT22;57229;51.432;-2.598;2022-07-05T01:50:38;11.00;99.90
56256;DHT22;57229;51.432;-2.598;2022-07-05T01:53:05;11.00;99.90
56256;DHT22;57229;51.432;-2.598;2022-07-05T01:55:34;10.90;99.90
56256;DHT22;57229;51.432;-2.598;2022-07-05T01:58:00;10.90;99.90
56256;DHT22;57229;51.432;-2.598;2022-07-05T02:00:26;10.80;99.90
56256;DHT22;57229;51.432;-2.598;2022-07-05T02:02:52;10.70;99.90
56256;DHT22;57229;51.432;-2.598;2022-07-05T02:05:18;10.70;99.90
56256;DHT22;57229;51.432;-2.598;2022-07-05T02:07:50;10.70;99.90
56256;DHT22;57229;51.432;-2.598;2022-07-05T02:10:16;10.60;99.90
56256;DHT22;57229;51.432;-2.598;2022-07-05T02:12:42;10.60;99.90
56256;DHT22;57229;51.432;-2.598;2022-07-05T02:15:08;10.50;99.90
56256;DHT22;57229;51.432;-2.598;2022-07-05T02:17:34;10.50;99.90
56256;DHT22;57229;51.432;-2.598;2022-07-05T02:20:00;10.40;99.90
56256;DHT22;57229;51.432;-2.598;2022-07-05T02:22:25;10.40;99.90
56256;DHT22;57229;51.432;-2.598;2022-07-05T02:24:52;10.50;99.90
56256;DHT22;57229;51.432;-2.598;2022-07-05T02:27:17;10.50;99.90
56256;DHT22;57229;51.432;-2.598;2022-07-05T02:29:43;10.50;99.90
56256;DHT22;57229;51.432;-2.598;2022-07-05T02:32:09;10.40;99.90
56256;DHT22;57229;51.432;-2.598;2022-07-05T02:34:35;10.30;99.90
56256;DHT22;57229;51.432;-2.598;2022-07-05T02:37:00;10.30;99.90
56256;DHT22;57229;51.432;-2.598;2022-07-05T02:39:26;10.20;99.90
56256;DHT22;57229;51.432;-2.598;2022-07-05T02:41:52;10.20;99.90
56256;DHT22;57229;51.432;-2.598;2022-07-05T02:44:17;10.10;99.90
56256;DHT22;57229;51.432;-2.598;2022-07-05T02:46:43;10.10;99.90
56256;DHT22;57229;51.432;-2.598;2022-07-05T02:49:08;10.10;99.90
56256;DHT22;57229;51.432;-2.598;2022-07-05T02:51:34;10.00;99.90
56256;DHT22;57229;51.432;-2.598;2022-07-05T02:54:00;10.00;99.90
56256;DHT22;57229;51.432;-2.598;2022-07-05T02:56:25;9.90;99.90
56256;DHT22;57229;51.432;-2.598;2022-07-05T02:58:51;9.90;99.90
56256;DHT22;57229;51.432;-2.598;2022-07-05T03:01:17;9.90;99.90
56256;DHT22;57229;51.432;-2.598;2022-07-05T03:03:42;9.90;99.90
56256;DHT22;57229;51.432;-2.598;2022-07-05T03:06:08;9.90;99.90
56256;DHT22;57229;51.432;-2.598;2022-07-05T03:08:34;9.90;99.90
56256;DHT22;57229;51.432;-2.598;2022-07-05T03:11:00;9.90;99.90
56256;DHT22;57229;51.432;-2.598;2022-07-05T03:13:25;9.80;99.90
56256;DHT22;57229;51.432;-2.598;2022-07-05T03:15:51;9.80;99.90
56256;DHT22;57229;51.432;-2.598;2022-07-05T03:18:17;9.80;99.90
56256;DHT22;57229;51.432;-2.598;2022-07-05T03:20:42;9.70;99.90
56256;DHT22;57229;51.432;-2.598;2022-07-05T03:23:08;9.70;99.90
56256;DHT22;57229;51.432;-2.598;2022-07-05T03:25:34;9.80;99.90
56256;DHT22;57229;51.432;-2.598;2022-07-05T03:27:59;9.80;99.90
56256;DHT22;57229;51.432;-2.598;2022-07-05T03:30:25;9.80;99.90
56256;DHT22;57229;51.432;-2.598;2022-07-05T03:32:51;9.70;99.90
56256;DHT22;57229;51.432;-2.598;2022-07-05T03:35:16;9.70;99.90
56256;DHT22;57229;51.432;-2.598;2022-07-05T03:37:42;9.70;99.90
56256;DHT22;57229;51.432;-2.598;2022-07-05T03:40:08;9.70;99.90
56256;DHT22;57229;51.432;-2.598;2022-07-05T03:42:34;9.70;99.90
56256;DHT22;57229;51.432;-2.598;2022-07-05T03:45:01;9.70;99.90
56256;DHT22;57229;51.432;-2.598;2022-07-05T03:47:27;9.70;99.90
56256;DHT22;57229;51.432;-2.598;2022-07-05T03:49:54;9.60;99.90
56256;DHT22;57229;51.432;-2.598;2022-07-05T03:52:19;9.60;99.90
56256;DHT22;57229;51.432;-2.598;2022-07-05T03:54:45;9.60;99.90
56256;DHT22;57229;51.432;-2.598;2022-07-05T03:57:12;9.60;99.90
56256;DHT22;57229;51.432;-2.598;2022-07-05T03:59:38;9.60;99.90
56256;DHT22;57229;51.432;-2.598;2022-07-05T04:02:04;9.50;99.90
56256;DHT22;57229;51.432;-2.598;2022-07-05T04:04:29;9.50;99.90
56256;DHT22;57229;51.432;-2.598;2022-07-05T04:06:55;9.60;99.90
56256;DHT22;57229;51.432;-2.598;2022-07-05T04:09:21;9.60;99.90
56256;DHT22;57229;51.432;-2.598;2022-07-05T04:11:46;9.60;99.90
56256;DHT22;57229;51.432;-2.598;2022-07-05T04:14:12;9.50;99.90
56256;DHT22;57229;51.432;-2.598;2022-07-05T04:16:38;9.60;99.90
56256;DHT22;57229;51.432;-2.598;2022-07-05T04:19:04;9.60;99.90
56256;DHT22;57229;51.432;-2.598;2022-07-05T04:21:31;9.70;99.90
56256;DHT22;57229;51.432;-2.598;2022-07-05T04:23:56;9.70;99.90
56256;DHT22;57229;51.432;-2.598;2022-07-05T04:26:22;9.70;99.90
56256;DHT22;57229;51.432;-2.598;2022-07-05T04:28:47;9.70;99.90
56256;DHT22;57229;51.432;-2.598;2022-07-05T04:31:13;9.70;99.90
56256;DHT22;57229;51.432;-2.598;2022-07-05T04:33:39;9.70;99.90
56256;DHT22;57229;51.432;-2.598;2022-07-05T04:36:05;9.80;99.90
56256;DHT22;57229;51.432;-2.598;2022-07-05T04:38:31;9.90;99.90
56256;DHT22;57229;51.432;-2.598;2022-07-05T04:40:57;10.00;99.90
56256;DHT22;57229;51.432;-2.598;2022-07-05T04:43:22;10.10;99.90
56256;DHT22;57229;51.432;-2.598;2022-07-05T04:45:48;10.10;99.90
56256;DHT22;57229;51.432;-2.598;2022-07-05T04:48:14;10.20;99.90
56256;DHT22;57229;51.432;-2.598;2022-07-05T04:50:40;10.30;99.90
56256;DHT22;57229;51.432;-2.598;2022-07-05T04:53:06;10.40;99.90
56256;DHT22;57229;51.432;-2.598;2022-07-05T04:55:32;10.60;99.90
56256;DHT22;57229;51.432;-2.598;2022-07-05T04:57:57;10.80;99.90
56256;DHT22;57229;51.432;-2.598;2022-07-05T05:00:23;11.00;99.90
56256;DHT22;57229;51.432;-2.598;2022-07-05T05:02:49;11.30;99.90
56256;DHT22;57229;51.432;-2.598;2022-07-05T05:05:14;11.50;99.90
56256;DHT22;57229;51.432;-2.598;2022-07-05T05:07:44;11.70;99.90
56256;DHT22;57229;51.432;-2.598;2022-07-05T05:10:10;12.00;99.90
56256;DHT22;57229;51.432;-2.598;2022-07-05T05:12:37;12.20;99.90
56256;DHT22;57229;51.432;-2.598;2022-07-05T05:15:03;12.40;99.90
56256;DHT22;57229;51.432;-2.598;2022-07-05T05:17:36;12.50;99.90
56256;DHT22;57229;51.432;-2.598;2022-07-05T05:20:09;12.70;99.90
56256;DHT22;57229;51.432;-2.598;2022-07-05T05:22:35;12.80;99.90
56256;DHT22;57229;51.432;-2.598;2022-07-05T05:25:01;13.00;99.90
56256;DHT22;57229;51.432;-2.598;2022-07-05T05:27:27;13.20;99.90
56256;DHT22;57229;51.432;-2.598;2022-07-05T05:29:53;13.30;99.90
56256;DHT22;57229;51.432;-2.598;2022-07-05T05:32:18;13.40;99.90
56256;DHT22;57229;51.432;-2.598;2022-07-05T05:34:44;13.60;99.90
56256;DHT22;57229;51.432;-2.598;2022-07-05T05:37:09;13.70;99.90
56256;DHT22;57229;51.432;-2.598;2022-07-05T05:39:35;13.80;99.90
56256;DHT22;57229;51.432;-2.598;2022-07-05T05:42:01;13.80;99.90
56256;DHT22;57229;51.432;-2.598;2022-07-05T05:44:26;13.80;99.90
56256;DHT22;57229;51.432;-2.598;2022-07-05T05:46:52;13.80;99.90
56256;DHT22;57229;51.432;-2.598;2022-07-05T05:49:18;13.80;99.90
56256;DHT22;57229;51.432;-2.598;2022-07-05T05:51:43;13.90;99.90
56256;DHT22;57229;51.432;-2.598;2022-07-05T05:54:09;14.00;99.90
56256;DHT22;57229;51.432;-2.598;2022-07-05T05:56:35;14.00;99.90
56256;DHT22;57229;51.432;-2.598;2022-07-05T05:59:00;14.10;99.90
56256;DHT22;57229;51.432;-2.598;2022-07-05T06:01:26;14.10;99.90
56256;DHT22;57229;51.432;-2.598;2022-07-05T06:03:52;14.20;99.90
56256;DHT22;57229;51.432;-2.598;2022-07-05T06:06:17;14.30;99.90
56256;DHT22;57229;51.432;-2.598;2022-07-05T06:08:43;14.30;99.90
56256;DHT22;57229;51.432;-2.598;2022-07-05T06:11:08;14.30;99.90
56256;DHT22;57229;51.432;-2.598;2022-07-05T06:13:34;14.30;99.90
56256;DHT22;57229;51.432;-2.598;2022-07-05T06:16:00;14.40;99.90
56256;DHT22;57229;51.432;-2.598;2022-07-05T06:18:26;14.50;99.90
56256;DHT22;57229;51.432;-2.598;2022-07-05T06:20:51;14.50;99.90
56256;DHT22;57229;51.432;-2.598;2022-07-05T06:23:17;14.60;99.90
56256;DHT22;57229;51.432;-2.598;2022-07-05T06:25:43;14.70;99.90
56256;DHT22;57229;51.432;-2.598;2022-07-05T06:28:08;14.80;99.90
56256;DHT22;57229;51.432;-2.598;2022-07-05T06:30:36;14.90;99.90
56256;DHT22;57229;51.432;-2.598;2022-07-05T06:33:03;15.00;99.90
56256;DHT22;57229;51.432;-2.598;2022-07-05T06:35:29;15.10;99.90
56256;DHT22;57229;51.432;-2.598;2022-07-05T06:37:59;15.20;99.90
56256;DHT22;57229;51.432;-2.598;2022-07-05T06:40:27;15.30;99.90
56256;DHT22;57229;51.432;-2.598;2022-07-05T06:42:54;15.30;99.90
56256;DHT22;57229;51.432;-2.598;2022-07-05T06:45:20;15.20;99.90
56256;DHT22;57229;51.432;-2.598;2022-07-05T06:48:11;15.20;99.90
56256;DHT22;57229;51.432;-2.598;2022-07-05T06:50:42;15.40;99.90
56256;DHT22;57229;51.432;-2.598;2022-07-05T06:53:09;15.50;99.90
56256;DHT22;57229;51.432;-2.598;2022-07-05T06:55:35;15.60;99.90
56256;DHT22;57229;51.432;-2.598;2022-07-05T06:58:03;15.70;99.90
56256;DHT22;57229;51.432;-2.598;2022-07-05T07:00:29;15.80;99.90
56256;DHT22;57229;51.432;-2.598;2022-07-05T07:02:56;15.90;99.90
56256;DHT22;57229;51.432;-2.598;2022-07-05T07:05:22;15.90;99.90
56256;DHT22;57229;51.432;-2.598;2022-07-05T07:07:47;15.90;99.90
56256;DHT22;57229;51.432;-2.598;2022-07-05T07:10:31;16.10;99.90
56256;DHT22;57229;51.432;-2.598;2022-07-05T07:12:57;16.30;99.90
56256;DHT22;57229;51.432;-2.598;2022-07-05T07:15:23;16.30;99.90
56256;DHT22;57229;51.432;-2.598;2022-07-05T07:17:49;16.40;99.90
56256;DHT22;57229;51.432;-2.598;2022-07-05T07:20:15;16.40;99.90
56256;DHT22;57229;51.432;-2.598;2022-07-05T07:22:41;16.60;99.90
56256;DHT22;57229;51.432;-2.598;2022-07-05T07:25:06;16.60;99.90
56256;DHT22;57229;51.432;-2.598;2022-07-05T07:27:41;16.70;99.90
56256;DHT22;57229;51.432;-2.598;2022-07-05T07:30:08;16.80;99.90
56256;DHT22;57229;51.432;-2.598;2022-07-05T07:32:34;16.90;99.90
56256;DHT22;57229;51.432;-2.598;2022-07-05T07:34:59;17.00;99.90
56256;DHT22;57229;51.432;-2.598;2022-07-05T07:37:25;17.10;99.90
56256;DHT22;57229;51.432;-2.598;2022-07-05T07:39:51;17.30;99.90
56256;DHT22;57229;51.432;-2.598;2022-07-05T07:42:17;17.30;99.90
56256;DHT22;57229;51.432;-2.598;2022-07-05T07:44:43;17.40;99.90
56256;DHT22;57229;51.432;-2.598;2022-07-05T07:47:08;17.50;99.90
56256;DHT22;57229;51.432;-2.598;2022-07-05T07:49:34;17.70;99.90
56256;DHT22;57229;51.432;-2.598;2022-07-05T07:52:02;17.90;99.90
56256;DHT22;57229;51.432;-2.598;2022-07-05T07:54:28;18.10;99.90
56256;DHT22;57229;51.432;-2.598;2022-07-05T07:56:54;18.30;99.90
56256;DHT22;57229;51.432;-2.598;2022-07-05T07:59:19;18.30;99.90
56256;DHT22;57229;51.432;-2.598;2022-07-05T08:01:45;18.40;99.90
56256;DHT22;57229;51.432;-2.598;2022-07-05T08:04:11;18.70;99.90
56256;DHT22;57229;51.432;-2.598;2022-07-05T08:06:38;18.80;99.90
56256;DHT22;57229;51.432;-2.598;2022-07-05T08:09:04;18.90;99.90
56256;DHT22;57229;51.432;-2.598;2022-07-05T08:11:29;18.80;99.90
56256;DHT22;57229;51.432;-2.598;2022-07-05T08:13:55;18.60;99.90
56256;DHT22;57229;51.432;-2.598;2022-07-05T08:16:21;18.60;99.90
56256;DHT22;57229;51.432;-2.598;2022-07-05T08:18:47;18.70;99.90
56256;DHT22;57229;51.432;-2.598;2022-07-05T08:21:31;18.80;99.60
56256;DHT22;57229;51.432;-2.598;2022-07-05T08:23:58;18.80;99.20
56256;DHT22;57229;51.432;-2.598;2022-07-05T08:26:23;18.80;99.20
56256;DHT22;57229;51.432;-2.598;2022-07-05T08:28:49;18.70;99.60
56256;DHT22;57229;51.432;-2.598;2022-07-05T08:31:15;18.90;98.90
56256;DHT22;57229;51.432;-2.598;2022-07-05T08:33:40;19.20;99.10
56256;DHT22;57229;51.432;-2.598;2022-07-05T08:36:06;19.40;99.50
56256;DHT22;57229;51.432;-2.598;2022-07-05T08:38:33;19.90;97.90
56256;DHT22;57229;51.432;-2.598;2022-07-05T08:40:59;19.90;97.90
56256;DHT22;57229;51.432;-2.598;2022-07-05T08:43:27;19.90;98.30
56256;DHT22;57229;51.432;-2.598;2022-07-05T08:45:53;20.30;97.70
56256;DHT22;57229;51.432;-2.598;2022-07-05T08:48:21;20.60;96.50
56256;DHT22;57229;51.432;-2.598;2022-07-05T08:50:47;20.60;95.00
56256;DHT22;57229;51.432;-2.598;2022-07-05T08:53:18;20.30;95.90
56256;DHT22;57229;51.432;-2.598;2022-07-05T08:55:45;20.40;96.10
56256;DHT22;57229;51.432;-2.598;2022-07-05T08:58:11;20.80;95.10
56256;DHT22;57229;51.432;-2.598;2022-07-05T09:00:42;20.80;94.90
56256;DHT22;57229;51.432;-2.598;2022-07-05T09:03:08;21.10;94.60
56256;DHT22;57229;51.432;-2.598;2022-07-05T09:05:52;21.60;94.70
56256;DHT22;57229;51.432;-2.598;2022-07-05T09:08:21;21.80;94.40
56256;DHT22;57229;51.432;-2.598;2022-07-05T09:10:49;22.10;93.80
56256;DHT22;57229;51.432;-2.598;2022-07-05T09:13:15;22.50;92.70
56256;DHT22;57229;51.432;-2.598;2022-07-05T09:15:42;22.10;92.60
56256;DHT22;57229;51.432;-2.598;2022-07-05T09:18:09;21.60;93.30
56256;DHT22;57229;51.432;-2.598;2022-07-05T09:20:36;21.10;93.60
56256;DHT22;57229;51.432;-2.598;2022-07-05T09:23:02;20.90;93.90
56256;DHT22;57229;51.432;-2.598;2022-07-05T09:25:31;20.90;93.80
56256;DHT22;57229;51.432;-2.598;2022-07-05T09:28:04;21.10;93.90
56256;DHT22;57229;51.432;-2.598;2022-07-05T09:30:34;21.20;94.00
56256;DHT22;57229;51.432;-2.598;2022-07-05T09:33:01;21.40;93.50
56256;DHT22;57229;51.432;-2.598;2022-07-05T09:35:28;21.30;94.00
56256;DHT22;57229;51.432;-2.598;2022-07-05T09:37:54;21.90;92.70
56256;DHT22;57229;51.432;-2.598;2022-07-05T09:40:19;22.20;91.80
56256;DHT22;57229;51.432;-2.598;2022-07-05T09:42:45;21.60;92.20
56256;DHT22;57229;51.432;-2.598;2022-07-05T09:45:11;21.60;92.40
56256;DHT22;57229;51.432;-2.598;2022-07-05T09:47:37;21.40;93.00
56256;DHT22;57229;51.432;-2.598;2022-07-05T09:50:03;21.50;92.80
56256;DHT22;57229;51.432;-2.598;2022-07-05T09:52:37;21.90;92.50
56256;DHT22;57229;51.432;-2.598;2022-07-05T09:55:14;22.60;91.20
56256;DHT22;57229;51.432;-2.598;2022-07-05T09:57:42;22.90;90.90
56256;DHT22;57229;51.432;-2.598;2022-07-05T10:00:18;23.10;90.50
56256;DHT22;57229;51.432;-2.598;2022-07-05T10:02:48;23.20;90.40
56256;DHT22;57229;51.432;-2.598;2022-07-05T10:05:25;23.50;90.40
56256;DHT22;57229;51.432;-2.598;2022-07-05T10:07:52;23.70;88.50
56256;DHT22;57229;51.432;-2.598;2022-07-05T10:10:23;23.60;89.40
56256;DHT22;57229;51.432;-2.598;2022-07-05T10:12:52;23.50;88.90
56256;DHT22;57229;51.432;-2.598;2022-07-05T10:15:21;23.50;88.40
56256;DHT22;57229;51.432;-2.598;2022-07-05T10:20:31;22.60;89.40
56256;DHT22;57229;51.432;-2.598;2022-07-05T10:22:58;22.10;90.50
56256;DHT22;57229;51.432;-2.598;2022-07-05T10:25:28;21.80;91.10
56256;DHT22;57229;51.432;-2.598;2022-07-05T10:27:54;21.70;91.10
56256;DHT22;57229;51.432;-2.598;2022-07-05T10:30:22;21.60;91.90
56256;DHT22;57229;51.432;-2.598;2022-07-05T10:32:49;21.50;92.40
56256;DHT22;57229;51.432;-2.598;2022-07-05T10:35:16;20.90;93.10
56256;DHT22;57229;51.432;-2.598;2022-07-05T10:37:43;20.70;93.20
56256;DHT22;57229;51.432;-2.598;2022-07-05T10:40:09;20.90;93.90
56256;DHT22;57229;51.432;-2.598;2022-07-05T10:42:46;21.10;93.20
56256;DHT22;57229;51.432;-2.598;2022-07-05T10:58:42;26.60;81.90
56256;DHT22;57229;51.432;-2.598;2022-07-05T11:03:49;24.70;84.20
56256;DHT22;57229;51.432;-2.598;2022-07-05T11:06:21;24.20;86.30
56256;DHT22;57229;51.432;-2.598;2022-07-05T11:11:47;23.60;88.50
56256;DHT22;57229;51.432;-2.598;2022-07-05T11:20:03;22.60;90.40
56256;DHT22;57229;51.432;-2.598;2022-07-05T11:22:29;22.10;91.40
56256;DHT22;57229;51.432;-2.598;2022-07-05T11:24:56;21.50;92.30
56256;DHT22;57229;51.432;-2.598;2022-07-05T11:27:22;21.60;92.10
56256;DHT22;57229;51.432;-2.598;2022-07-05T11:29:52;21.70;92.20
56256;DHT22;57229;51.432;-2.598;2022-07-05T11:34:55;22.00;91.90
56256;DHT22;57229;51.432;-2.598;2022-07-05T11:37:27;22.20;92.00
56256;DHT22;57229;51.432;-2.598;2022-07-05T11:42:35;21.80;92.60
56256;DHT22;57229;51.432;-2.598;2022-07-05T11:45:03;22.00;93.40
56256;DHT22;57229;51.432;-2.598;2022-07-05T11:47:30;22.40;92.70
56256;DHT22;57229;51.432;-2.598;2022-07-05T11:49:57;22.60;92.00
56256;DHT22;57229;51.432;-2.598;2022-07-05T11:52:31;23.10;91.50
56256;DHT22;57229;51.432;-2.598;2022-07-05T11:54:58;23.40;90.90
56256;DHT22;57229;51.432;-2.598;2022-07-05T11:57:24;23.80;90.60
56256;DHT22;57229;51.432;-2.598;2022-07-05T11:59:50;24.60;89.50
56256;DHT22;57229;51.432;-2.598;2022-07-05T12:02:17;25.50;86.60
56256;DHT22;57229;51.432;-2.598;2022-07-05T12:04:50;25.90;84.30
56256;DHT22;57229;51.432;-2.598;2022-07-05T12:07:30;26.10;83.70
56256;DHT22;57229;51.432;-2.598;2022-07-05T12:09:57;26.00;84.20
56256;DHT22;57229;51.432;-2.598;2022-07-05T12:12:41;27.20;83.60
56256;DHT22;57229;51.432;-2.598;2022-07-05T12:15:10;28.50;79.90
56256;DHT22;57229;51.432;-2.598;2022-07-05T12:17:37;29.70;75.80
56256;DHT22;57229;51.432;-2.598;2022-07-05T12:20:05;29.00;75.60
56256;DHT22;57229;51.432;-2.598;2022-07-05T12:22:35;27.20;78.70
56256;DHT22;57229;51.432;-2.598;2022-07-05T12:25:03;25.90;81.70
56256;DHT22;57229;51.432;-2.598;2022-07-05T12:27:30;24.70;84.60
56256;DHT22;57229;51.432;-2.598;2022-07-05T12:29:57;24.00;86.70
56256;DHT22;57229;51.432;-2.598;2022-07-05T12:32:23;23.70;88.20
56256;DHT22;57229;51.432;-2.598;2022-07-05T12:34:48;23.80;88.30
56256;DHT22;57229;51.432;-2.598;2022-07-05T12:37:27;24.00;88.10
56256;DHT22;57229;51.432;-2.598;2022-07-05T12:40:11;23.90;89.30
56256;DHT22;57229;51.432;-2.598;2022-07-05T12:42:39;23.70;88.90
56256;DHT22;57229;51.432;-2.598;2022-07-05T12:45:17;22.90;90.70
56256;DHT22;57229;51.432;-2.598;2022-07-05T12:50:59;22.50;91.20
56256;DHT22;57229;51.432;-2.598;2022-07-05T12:53:25;22.30;91.70
56256;DHT22;57229;51.432;-2.598;2022-07-05T12:56:10;21.90;92.80
56256;DHT22;57229;51.432;-2.598;2022-07-05T12:58:57;22.20;92.80
56256;DHT22;57229;51.432;-2.598;2022-07-05T13:01:27;22.40;92.50
56256;DHT22;57229;51.432;-2.598;2022-07-05T13:04:13;22.10;92.90
56256;DHT22;57229;51.432;-2.598;2022-07-05T13:09:16;22.40;92.70
56256;DHT22;57229;51.432;-2.598;2022-07-05T13:11:43;22.70;91.90
56256;DHT22;57229;51.432;-2.598;2022-07-05T13:14:09;22.90;91.80
56256;DHT22;57229;51.432;-2.598;2022-07-05T13:16:35;22.80;92.10
56256;DHT22;57229;51.432;-2.598;2022-07-05T13:19:11;22.80;91.90
56256;DHT22;57229;51.432;-2.598;2022-07-05T13:21:37;23.00;92.20
56256;DHT22;57229;51.432;-2.598;2022-07-05T13:24:04;23.10;92.30
56256;DHT22;57229;51.432;-2.598;2022-07-05T13:26:31;23.30;92.10
56256;DHT22;57229;51.432;-2.598;2022-07-05T13:28:57;23.40;92.30
56256;DHT22;57229;51.432;-2.598;2022-07-05T13:31:22;23.50;92.30
56256;DHT22;57229;51.432;-2.598;2022-07-05T13:33:48;23.40;92.30
56256;DHT22;57229;51.432;-2.598;2022-07-05T13:36:14;24.10;91.80
56256;DHT22;57229;51.432;-2.598;2022-07-05T13:38:39;25.60;90.30
56256;DHT22;57229;51.432;-2.598;2022-07-05T13:41:05;27.00;88.00
56256;DHT22;57229;51.432;-2.598;2022-07-05T13:43:31;27.80;84.40
56256;DHT22;57229;51.432;-2.598;2022-07-05T13:45:56;27.70;83.00
56256;DHT22;57229;51.432;-2.598;2022-07-05T13:48:22;26.80;84.40
56256;DHT22;57229;51.432;-2.598;2022-07-05T13:50:48;25.10;88.20
56256;DHT22;57229;51.432;-2.598;2022-07-05T13:53:13;24.40;90.10
56256;DHT22;57229;51.432;-2.598;2022-07-05T13:55:39;24.00;91.10
56256;DHT22;57229;51.432;-2.598;2022-07-05T13:58:05;23.70;91.40
56256;DHT22;57229;51.432;-2.598;2022-07-05T14:00:30;24.00;91.30
56256;DHT22;57229;51.432;-2.598;2022-07-05T14:02:56;25.20;90.10
56256;DHT22;57229;51.432;-2.598;2022-07-05T14:05:21;25.80;88.00
56256;DHT22;57229;51.432;-2.598;2022-07-05T14:07:48;25.50;88.70
56256;DHT22;57229;51.432;-2.598;2022-07-05T14:10:14;25.30;88.80
56256;DHT22;57229;51.432;-2.598;2022-07-05T14:12:40;24.60;90.20
56256;DHT22;57229;51.432;-2.598;2022-07-05T14:15:06;24.40;90.70
56256;DHT22;57229;51.432;-2.598;2022-07-05T14:17:32;24.30;91.20
56256;DHT22;57229;51.432;-2.598;2022-07-05T14:19:58;24.00;91.50
56256;DHT22;57229;51.432;-2.598;2022-07-05T14:22:24;24.00;91.40
56256;DHT22;57229;51.432;-2.598;2022-07-05T14:24:50;24.00;91.90
56256;DHT22;57229;51.432;-2.598;2022-07-05T14:27:15;26.00;90.00
56256;DHT22;57229;51.432;-2.598;2022-07-05T14:29:41;28.20;84.80
56256;DHT22;57229;51.432;-2.598;2022-07-05T14:32:07;28.60;82.10
56256;DHT22;57229;51.432;-2.598;2022-07-05T14:34:33;28.80;81.80
56256;DHT22;57229;51.432;-2.598;2022-07-05T14:36:58;29.20;80.10
56256;DHT22;57229;51.432;-2.598;2022-07-05T14:39:25;29.00;80.30
56256;DHT22;57229;51.432;-2.598;2022-07-05T14:41:51;28.60;80.80
56256;DHT22;57229;51.432;-2.598;2022-07-05T14:44:16;29.60;79.30
56256;DHT22;57229;51.432;-2.598;2022-07-05T14:46:42;30.50;76.40
56256;DHT22;57229;51.432;-2.598;2022-07-05T14:49:08;29.80;77.90
56256;DHT22;57229;51.432;-2.598;2022-07-05T14:51:34;29.50;77.90
56256;DHT22;57229;51.432;-2.598;2022-07-05T14:54:00;29.00;80.10
56256;DHT22;57229;51.432;-2.598;2022-07-05T14:56:26;29.30;78.30
56256;DHT22;57229;51.432;-2.598;2022-07-05T14:58:51;29.10;79.10
56256;DHT22;57229;51.432;-2.598;2022-07-05T15:01:17;28.40;81.30
56256;DHT22;57229;51.432;-2.598;2022-07-05T15:03:44;27.50;83.20
56256;DHT22;57229;51.432;-2.598;2022-07-05T15:06:10;27.40;84.20
56256;DHT22;57229;51.432;-2.598;2022-07-05T15:08:36;27.70;83.50
56256;DHT22;57229;51.432;-2.598;2022-07-05T15:11:02;28.70;80.30
56256;DHT22;57229;51.432;-2.598;2022-07-05T15:13:27;28.10;80.80
56256;DHT22;57229;51.432;-2.598;2022-07-05T15:15:54;27.20;83.00
56256;DHT22;57229;51.432;-2.598;2022-07-05T15:18:22;26.10;86.00
56256;DHT22;57229;51.432;-2.598;2022-07-05T15:20:48;25.10;88.80
56256;DHT22;57229;51.432;-2.598;2022-07-05T15:23:13;24.40;90.60
56256;DHT22;57229;51.432;-2.598;2022-07-05T15:25:39;23.70;92.20
56256;DHT22;57229;51.432;-2.598;2022-07-05T15:28:05;23.60;92.60
56256;DHT22;57229;51.432;-2.598;2022-07-05T15:30:36;23.50;93.10
56256;DHT22;57229;51.432;-2.598;2022-07-05T15:33:02;23.20;93.20
56256;DHT22;57229;51.432;-2.598;2022-07-05T15:35:28;22.80;94.30
56256;DHT22;57229;51.432;-2.598;2022-07-05T15:37:54;22.70;94.80
56256;DHT22;57229;51.432;-2.598;2022-07-05T15:40:20;22.60;95.60
56256;DHT22;57229;51.432;-2.598;2022-07-05T15:42:45;22.70;95.60
56256;DHT22;57229;51.432;-2.598;2022-07-05T15:45:11;22.60;95.70
56256;DHT22;57229;51.432;-2.598;2022-07-05T15:47:37;22.90;95.60
56256;DHT22;57229;51.432;-2.598;2022-07-05T15:50:06;23.00;95.70
56256;DHT22;57229;51.432;-2.598;2022-07-05T15:52:32;23.20;95.10
56256;DHT22;57229;51.432;-2.598;2022-07-05T15:54:58;23.00;95.50